Time;durP1;ratioP1;P1;durP2;ratioP2;P2;SDS_P1;SDS_P2;PMS_P1;PMS_P2;Temp;Humidity;BMP_temperature;BMP_pressure;BME280_temperature;BME280_humidity;BME280_pressure;Samples;Min_cycle;Max_cycle;Signal;HPM_P1;HPM_P2
2022/04/03 00:00:27;;;;;;;8.73;3.55;;;;;;;0.29;72.98;101249.25;4824289;29;20034;-71
2022/04/03 00:02:52;;;;;;;8.70;3.78;;;;;;;0.31;71.29;101255.34;4810207;29;20481;-71
2022/04/03 00:05:19;;;;;;;10.50;3.58;;;;;;;0.31;72.20;101256.19;4824945;29;20031;-71
2022/04/03 00:07:48;;;;;;;8.25;3.33;;;;;;;0.34;70.69;101258.50;4818095;29;20058;-71
2022/04/03 00:10:14;;;;;;;8.23;3.83;;;;;;;0.34;70.43;101263.97;4819559;29;20123;-71
2022/04/03 00:12:40;;;;;;;7.65;3.33;;;;;;;0.33;70.78;101256.78;4828364;29;20472;-71
2022/04/03 00:15:06;;;;;;;8.70;3.30;;;;;;;0.33;70.30;101254.06;4814482;29;20102;-71
2022/04/03 00:17:31;;;;;;;6.63;2.88;;;;;;;0.36;69.98;101256.41;4806715;29;20042;-71
2022/04/03 00:19:57;;;;;;;6.55;3.03;;;;;;;0.29;70.13;101258.28;4826156;29;20057;-71
2022/04/03 00:22:23;;;;;;;7.43;3.70;;;;;;;0.30;69.59;101250.91;4819330;29;20030;-71
2022/04/03 00:24:48;;;;;;;7.85;3.60;;;;;;;0.27;70.10;101257.63;4809676;29;20107;-71
2022/04/03 00:27:14;;;;;;;8.13;3.60;;;;;;;0.33;69.38;101254.06;4814889;29;20488;-71
2022/04/03 00:29:39;;;;;;;5.78;3.05;;;;;;;0.29;69.39;101252.81;4815523;29;20041;-71
2022/04/03 00:32:05;;;;;;;10.40;3.50;;;;;;;0.21;69.41;101261.19;4820448;29;20043;-71
2022/04/03 00:34:30;;;;;;;9.98;3.70;;;;;;;0.22;69.66;101261.00;4825487;29;20125;-71
2022/04/03 00:36:56;;;;;;;8.45;3.50;;;;;;;0.13;69.92;101262.22;4809514;29;20084;-71
2022/04/03 00:39:22;;;;;;;8.68;4.20;;;;;;;0.16;69.73;101258.25;4820221;29;20038;-71
2022/04/03 00:41:47;;;;;;;6.90;3.63;;;;;;;0.13;69.80;101256.75;4812334;29;20074;-71
2022/04/03 00:44:12;;;;;;;7.78;3.63;;;;;;;0.14;69.34;101257.59;4812725;29;20127;-71
2022/04/03 00:46:38;;;;;;;9.18;3.40;;;;;;;0.11;69.26;101258.00;4816533;29;20035;-71
2022/04/03 00:49:03;;;;;;;7.00;3.42;;;;;;;0.09;69.64;101260.13;4822956;29;20038;-71
2022/04/03 00:51:29;;;;;;;7.68;3.47;;;;;;;0.08;69.48;101253.81;4817390;29;20050;-71
2022/04/03 00:53:55;;;;;;;9.02;3.50;;;;;;;0.03;69.64;101250.88;4809394;29;20038;-71
2022/04/03 00:56:21;;;;;;;5.10;3.33;;;;;;;0.05;69.08;101248.75;4823204;29;20045;-71
2022/04/03 00:58:46;;;;;;;6.43;3.13;;;;;;;-0.02;68.88;101239.72;4809357;29;20087;-71
2022/04/03 01:01:12;;;;;;;5.95;3.08;;;;;;;-0.02;68.74;101240.56;4808001;29;20043;-71
2022/04/03 01:03:37;;;;;;;8.57;3.38;;;;;;;-0.04;68.85;101244.53;4822211;29;20082;-71
2022/04/03 01:06:03;;;;;;;6.20;3.10;;;;;;;-0.06;68.68;101249.38;4827353;29;20034;-71
2022/04/03 01:08:28;;;;;;;7.28;3.38;;;;;;;-0.08;68.97;101246.03;4816483;29;20055;-71
2022/04/03 01:10:54;;;;;;;8.40;3.45;;;;;;;-0.13;68.77;101243.91;4829172;29;20046;-71
2022/04/03 01:13:21;;;;;;;8.13;3.47;;;;;;;-0.12;68.91;101256.50;4826143;29;20034;-71
2022/04/03 01:15:53;;;;;;;7.00;3.65;;;;;;;-0.19;68.83;101244.72;4824964;29;20062;-71
2022/04/03 01:18:19;;;;;;;6.55;3.17;;;;;;;-0.25;69.04;101249.13;4818092;29;20399;-71
2022/04/03 01:20:45;;;;;;;7.05;3.25;;;;;;;-0.24;68.93;101258.13;4818974;29;20031;-71
2022/04/03 01:23:11;;;;;;;5.97;3.30;;;;;;;-0.29;69.02;101258.75;4807661;29;20066;-71
2022/04/03 01:25:36;;;;;;;4.95;3.33;;;;;;;-0.31;68.94;101249.06;4816493;29;20034;-71
2022/04/03 01:28:01;;;;;;;5.53;3.03;;;;;;;-0.37;69.22;101256.19;4803321;29;20039;-71
2022/04/03 01:30:27;;;;;;;6.25;2.90;;;;;;;-0.36;69.30;101257.88;4806054;29;20052;-71
2022/04/03 01:32:53;;;;;;;8.32;2.92;;;;;;;-0.40;69.12;101251.13;4818261;29;20444;-71
2022/04/03 01:35:28;;;;;;;6.63;3.10;;;;;;;-0.45;69.07;101259.09;4818849;29;20046;-71
2022/04/03 01:37:54;;;;;;;6.93;3.00;;;;;;;-0.44;68.97;101249.03;4830420;29;20026;-71
2022/04/03 01:40:19;;;;;;;7.57;3.08;;;;;;;-0.47;69.02;101247.56;4829484;29;20054;-71
2022/04/03 01:42:55;;;;;;;5.03;3.45;;;;;;;-0.53;69.11;101251.06;4830642;29;20041;-71
2022/04/03 01:45:21;;;;;;;7.35;3.20;;;;;;;-0.59;69.22;101243.72;4830263;29;20030;-71
2022/04/03 01:47:46;;;;;;;7.53;2.92;;;;;;;-0.61;69.09;101254.84;4802534;29;20062;-71
2022/04/03 01:50:12;;;;;;;5.97;3.30;;;;;;;-0.63;69.10;101247.91;4826513;29;20050;-71
2022/04/03 01:52:37;;;;;;;4.85;2.95;;;;;;;-0.62;68.89;101244.13;4823163;29;20046;-71
2022/04/03 01:55:03;;;;;;;5.43;3.08;;;;;;;-0.71;69.07;101247.00;4811424;29;20042;-71
2022/04/03 01:57:29;;;;;;;7.90;3.22;;;;;;;-0.71;69.18;101243.44;4810442;29;20540;-71
2022/04/03 01:59:54;;;;;;;4.90;2.97;;;;;;;-0.79;69.17;101246.34;4814463;29;20057;-71
2022/04/03 02:02:20;;;;;;;6.50;2.92;;;;;;;-0.80;69.17;101261.03;4800026;29;20031;-71
2022/04/03 02:04:46;;;;;;;5.07;2.85;;;;;;;-0.77;69.18;101247.81;4813305;29;20039;-71
2022/04/03 02:07:12;;;;;;;6.60;3.08;;;;;;;-0.78;68.84;101248.88;4806517;29;20038;-71
2022/04/03 02:09:37;;;;;;;7.90;2.97;;;;;;;-0.86;69.11;101250.91;4811244;29;20046;-71
2022/04/03 02:12:04;;;;;;;8.00;3.00;;;;;;;-0.86;68.96;101251.75;4822622;29;20038;-71
2022/04/03 02:14:30;;;;;;;6.28;2.72;;;;;;;-0.88;68.86;101251.13;4834136;29;20094;-71
2022/04/03 02:16:56;;;;;;;6.07;2.92;;;;;;;-0.96;68.93;101252.09;4828892;29;20500;-71
2022/04/03 02:19:22;;;;;;;3.83;2.55;;;;;;;-1.00;69.30;101250.00;4826514;29;20034;-71
2022/04/03 02:21:47;;;;;;;5.78;2.60;;;;;;;-1.02;69.38;101255.63;4825818;29;20574;-71
2022/04/03 02:24:13;;;;;;;9.07;3.50;;;;;;;-1.09;69.39;101256.63;4812142;29;20047;-71
2022/04/03 02:26:38;;;;;;;5.72;2.63;;;;;;;-1.08;69.25;101252.88;4841077;29;20501;-71
2022/04/03 02:29:04;;;;;;;5.10;2.50;;;;;;;-1.07;69.33;101257.28;4798149;29;20034;-71
2022/04/03 02:31:30;;;;;;;5.53;2.88;;;;;;;-1.12;69.41;101247.78;4795840;29;20066;-71
2022/04/03 02:33:55;;;;;;;6.50;2.97;;;;;;;-1.13;69.62;101246.13;4814306;29;20041;-71
2022/04/03 02:36:21;;;;;;;8.23;3.22;;;;;;;-1.12;69.97;101236.06;4801189;29;20091;-71
2022/04/03 02:38:46;;;;;;;8.00;3.22;;;;;;;-1.16;69.76;101243.81;4829668;29;20049;-71
2022/04/03 02:41:12;;;;;;;6.53;2.95;;;;;;;-1.17;69.95;101238.53;4812013;29;20049;-71
2022/04/03 02:43:38;;;;;;;7.18;3.33;;;;;;;-1.23;70.12;101237.44;4827362;29;20041;-71
2022/04/03 02:46:03;;;;;;;5.88;2.90;;;;;;;-1.21;69.73;101243.53;4826756;29;20396;-71
2022/04/03 02:48:30;;;;;;;6.32;3.47;;;;;;;-1.21;69.69;101242.72;4826671;29;20038;-71
2022/04/03 02:50:56;;;;;;;6.82;2.80;;;;;;;-1.26;69.65;101246.03;4828373;29;20053;-71
2022/04/03 02:53:21;;;;;;;6.28;3.10;;;;;;;-1.31;70.66;101253.09;4814168;29;20042;-71
2022/04/03 02:55:47;;;;;;;7.32;2.90;;;;;;;-1.33;70.95;101245.16;4817301;29;20038;-71
2022/04/03 02:58:12;;;;;;;5.72;3.00;;;;;;;-1.33;70.69;101249.75;4830359;29;20030;-71
2022/04/03 03:00:38;;;;;;;8.38;3.20;;;;;;;-1.35;70.64;101248.06;4828222;29;20041;-71
2022/04/03 03:03:06;;;;;;;5.97;3.17;;;;;;;-1.36;70.42;101253.72;4798204;29;20159;-71
2022/04/03 03:05:32;;;;;;;5.78;2.80;;;;;;;-1.37;70.35;101252.84;4788320;29;20035;-71
2022/04/03 03:07:57;;;;;;;6.32;3.35;;;;;;;-1.39;70.20;101252.22;4814253;29;20171;-71
2022/04/03 03:10:23;;;;;;;6.47;3.00;;;;;;;-1.37;70.14;101249.28;4793902;29;20039;-71
2022/04/03 03:12:49;;;;;;;5.00;2.90;;;;;;;-1.39;70.41;101257.69;4837046;29;20034;-71
2022/04/03 03:15:15;;;;;;;8.88;3.20;;;;;;;-1.43;70.64;101250.91;4816431;29;20052;-71
2022/04/03 03:17:40;;;;;;;5.78;2.92;;;;;;;-1.47;70.72;101259.69;4830170;29;20035;-71
2022/04/03 03:20:06;;;;;;;12.25;3.42;;;;;;;-1.48;70.61;101258.00;4828120;29;20532;-71
2022/04/03 03:22:32;;;;;;;7.93;3.40;;;;;;;-1.47;70.77;101267.88;4827667;29;20034;-71
2022/04/03 03:24:57;;;;;;;5.72;3.17;;;;;;;-1.46;70.43;101259.50;4799742;29;20480;-71
2022/04/03 03:27:23;;;;;;;7.22;3.17;;;;;;;-1.49;70.33;101269.94;4834646;29;20034;-71
2022/04/03 03:29:48;;;;;;;8.07;3.65;;;;;;;-1.52;70.25;101268.47;4811222;29;20045;-71
2022/04/03 03:32:14;;;;;;;6.47;2.88;;;;;;;-1.53;70.12;101274.09;4807708;29;20030;-71
2022/04/03 03:34:39;;;;;;;5.68;2.65;;;;;;;-1.50;69.71;101265.56;4798098;29;20042;-71
2022/04/03 03:37:05;;;;;;;5.25;2.60;;;;;;;-1.52;69.83;101273.06;4820548;29;20536;-71
2022/04/03 03:39:31;;;;;;;4.13;2.53;;;;;;;-1.57;69.47;101269.03;4801598;29;20027;-71
2022/04/03 03:41:56;;;;;;;4.57;2.50;;;;;;;-1.64;69.66;101270.88;4795825;29;20043;-71
2022/04/03 03:44:25;;;;;;;5.28;2.97;;;;;;;-1.62;69.33;101268.78;4799292;29;20067;-71
2022/04/03 03:46:50;;;;;;;7.82;3.20;;;;;;;-1.65;69.60;101262.88;4797768;29;20038;-71
2022/04/03 03:49:16;;;;;;;6.82;2.85;;;;;;;-1.70;69.54;101268.94;4800569;29;20095;-71
2022/04/03 03:51:42;;;;;;;6.85;2.95;;;;;;;-1.71;69.59;101266.38;4813360;29;20139;-71
2022/04/03 03:54:08;;;;;;;7.38;2.58;;;;;;;-1.75;69.72;101265.94;4782168;29;20454;-70
2022/04/03 03:56:33;;;;;;;4.90;3.10;;;;;;;-1.74;70.03;101272.22;4820918;29;20030;-71
2022/04/03 03:58:59;;;;;;;8.40;2.60;;;;;;;-1.74;70.02;101270.34;4813083;29;20054;-71
2022/04/03 04:01:24;;;;;;;5.10;3.00;;;;;;;-1.75;70.01;101274.13;4810214;29;20397;-70
2022/04/03 04:03:50;;;;;;;5.10;2.90;;;;;;;-1.81;70.58;101269.44;4808039;29;20055;-71
2022/04/03 04:06:15;;;;;;;4.38;2.72;;;;;;;-1.83;70.29;101274.25;4809258;29;20034;-71
2022/04/03 04:08:41;;;;;;;9.75;3.42;;;;;;;-1.84;70.09;101281.56;4811486;29;20495;-71
2022/04/03 04:11:07;;;;;;;4.25;2.58;;;;;;;-1.84;70.55;101280.69;4797064;29;20068;-70
2022/04/03 04:13:32;;;;;;;5.95;2.83;;;;;;;-1.92;70.96;101284.41;4813704;29;20068;-71
2022/04/03 04:15:58;;;;;;;5.25;3.17;;;;;;;-1.94;71.29;101285.66;4829552;29;20042;-71
2022/04/03 04:18:24;;;;;;;7.10;3.13;;;;;;;-1.94;71.56;101281.03;4811827;29;20031;-70
2022/04/03 04:20:50;;;;;;;5.70;2.90;;;;;;;-2.02;71.89;101289.31;4796493;29;20026;-71
2022/04/03 04:23:16;;;;;;;8.35;3.22;;;;;;;-2.05;72.61;101281.53;4811829;29;20038;-71
2022/04/03 04:25:42;;;;;;;6.60;3.22;;;;;;;-2.02;72.62;101289.31;4795563;29;20507;-70
2022/04/03 04:28:07;;;;;;;6.70;3.28;;;;;;;-2.06;72.67;101285.31;4811334;29;20043;-70
2022/04/03 04:30:33;;;;;;;5.93;2.95;;;;;;;-2.02;72.06;101284.72;4794273;29;20041;-70
2022/04/03 04:32:58;;;;;;;6.43;3.17;;;;;;;-2.04;71.81;101289.50;4811369;29;20052;-71
2022/04/03 04:35:24;;;;;;;8.77;3.05;;;;;;;-2.06;72.20;101294.31;4811140;29;20030;-71
2022/04/03 04:37:50;;;;;;;5.70;3.03;;;;;;;-2.06;71.78;101288.03;4811026;29;20031;-70
2022/04/03 04:40:16;;;;;;;7.25;3.10;;;;;;;-2.08;71.66;101296.38;4813611;29;20050;-71
2022/04/03 04:42:41;;;;;;;7.78;3.20;;;;;;;-2.07;71.69;101283.59;4813432;29;20087;-71
2022/04/03 04:45:09;;;;;;;4.72;2.92;;;;;;;-2.06;71.19;101294.31;4820030;29;20092;-71
2022/04/03 04:47:35;;;;;;;7.32;3.08;;;;;;;-2.05;71.45;101298.72;4824961;29;20039;-70
2022/04/03 04:50:01;;;;;;;7.78;3.72;;;;;;;-2.10;71.93;101298.44;4816700;29;20503;-71
2022/04/03 04:52:28;;;;;;;5.82;3.05;;;;;;;-2.15;72.10;101298.16;4821449;29;20039;-70
2022/04/03 04:54:53;;;;;;;8.68;3.17;;;;;;;-2.09;71.60;101304.72;4835150;29;20034;-71
2022/04/03 04:57:19;;;;;;;7.40;3.20;;;;;;;-2.13;71.38;101296.09;4795917;29;20039;-70
2022/04/03 04:59:45;;;;;;;5.45;2.90;;;;;;;-2.11;71.27;101296.75;4796839;29;20030;-70
2022/04/03 05:02:10;;;;;;;7.65;3.17;;;;;;;-2.15;71.52;101305.50;4801368;29;20035;-70
2022/04/03 05:04:36;;;;;;;5.00;3.00;;;;;;;-2.16;71.56;101292.94;4809286;29;20045;-70
2022/04/03 05:07:01;;;;;;;4.63;2.95;;;;;;;-2.14;71.57;101299.88;4821704;29;20027;-70
2022/04/03 05:09:27;;;;;;;7.18;2.83;;;;;;;-2.16;71.72;101295.66;4816556;29;20034;-70
2022/04/03 05:11:52;;;;;;;6.38;2.97;;;;;;;-2.20;71.68;101300.63;4810154;29;20558;-70
2022/04/03 05:14:18;;;;;;;6.90;3.20;;;;;;;-2.17;71.85;101297.53;4803162;29;20030;-70
2022/04/03 05:16:43;;;;;;;8.75;3.20;;;;;;;-2.16;71.70;101296.50;4781008;29;20636;-70
2022/04/03 05:19:13;;;;;;;6.30;3.30;;;;;;;-2.19;71.88;101302.31;4813156;29;20042;-70
2022/04/03 05:21:38;;;;;;;5.25;3.50;;;;;;;-2.22;72.60;101299.97;4807811;29;20046;-70
2022/04/03 05:24:04;;;;;;;6.20;3.42;;;;;;;-2.20;72.07;101303.38;4816960;29;20031;-70
2022/04/03 05:26:29;;;;;;;8.30;3.80;;;;;;;-2.26;72.23;101306.81;4795212;29;20034;-70
2022/04/03 05:28:55;;;;;;;6.07;3.55;;;;;;;-2.22;72.18;101310.88;4795824;29;20107;-70
2022/04/03 05:31:21;;;;;;;5.05;3.13;;;;;;;-2.23;72.17;101311.88;4810607;29;20042;-70
2022/04/03 05:33:46;;;;;;;5.50;3.33;;;;;;;-2.28;72.34;101307.03;4792885;29;20031;-71
2022/04/03 05:36:11;;;;;;;9.07;3.08;;;;;;;-2.23;71.99;101302.88;4811867;29;20046;-70
2022/04/03 05:38:37;;;;;;;8.45;3.38;;;;;;;-2.28;71.86;101312.47;4808018;29;20035;-70
2022/04/03 05:41:02;;;;;;;8.60;3.58;;;;;;;-2.29;71.94;101318.91;4822539;29;20102;-70
2022/04/03 05:43:28;;;;;;;5.65;3.25;;;;;;;-2.29;72.00;101320.81;4817170;29;20503;-70
2022/04/03 05:45:53;;;;;;;6.32;3.20;;;;;;;-2.28;71.99;101317.06;4804648;29;20037;-70
2022/04/03 05:48:19;;;;;;;6.15;3.20;;;;;;;-2.29;71.86;101318.91;4816106;29;20031;-70
2022/04/03 05:50:45;;;;;;;5.25;3.25;;;;;;;-2.29;71.73;101318.09;4798628;29;20049;-71
2022/04/03 05:53:10;;;;;;;5.18;3.08;;;;;;;-2.32;71.84;101318.47;4826027;29;20041;-70
2022/04/03 05:55:38;;;;;;;6.68;3.40;;;;;;;-2.32;72.27;101319.31;4810030;29;20035;-71
2022/04/03 05:58:04;;;;;;;10.60;3.85;;;;;;;-2.33;72.78;101324.94;4809979;29;20407;-70
2022/04/03 06:00:29;;;;;;;7.40;3.50;;;;;;;-2.28;72.28;101333.41;4798042;29;20032;-71
2022/04/03 06:02:59;;;;;;;7.05;4.00;;;;;;;-2.28;72.23;101330.69;4799210;29;20103;-71
2022/04/03 06:05:29;;;;;;;8.82;4.00;;;;;;;-2.26;72.38;101337.63;4798957;29;20034;-71
2022/04/03 06:07:55;;;;;;;8.70;4.25;;;;;;;-2.19;72.59;101326.81;4797433;29;20031;-71
2022/04/03 06:10:21;;;;;;;10.80;4.55;;;;;;;-2.16;72.60;101334.59;4819763;29;20194;-71
2022/04/03 06:13:09;;;;;;;6.40;3.92;;;;;;;-2.09;72.59;101340.97;4801428;29;20042;-71
2022/04/03 06:15:39;;;;;;;8.40;4.55;;;;;;;-2.05;72.31;101344.97;4809617;29;20073;-70
2022/04/03 06:18:09;;;;;;;8.45;4.03;;;;;;;-1.94;72.32;101340.09;4816806;29;20087;-71
2022/04/03 06:20:34;;;;;;;7.55;4.30;;;;;;;-1.91;72.30;101350.59;4818969;29;20039;-71
2022/04/03 06:23:01;;;;;;;9.88;5.03;;;;;;;-1.84;72.35;101344.19;4809347;29;20560;-71
2022/04/03 06:25:26;;;;;;;11.55;5.18;;;;;;;-1.75;72.14;101349.53;4803921;29;20042;-71
2022/04/03 06:27:52;;;;;;;10.68;5.05;;;;;;;-1.66;73.02;101349.19;4807722;29;20400;-71
2022/04/03 06:30:17;;;;;;;12.52;5.10;;;;;;;-1.54;73.23;101356.88;4798479;29;20499;-71
2022/04/03 06:32:43;;;;;;;11.50;4.82;;;;;;;-1.41;72.87;101357.00;4823566;29;20038;-70
2022/04/03 06:35:09;;;;;;;8.90;4.70;;;;;;;-1.20;74.09;101359.72;4822743;29;20047;-70
2022/04/03 06:37:34;;;;;;;9.27;4.82;;;;;;;-1.02;75.13;101367.44;4823617;29;20041;-70
2022/04/03 06:40:00;;;;;;;11.82;5.97;;;;;;;-0.86;77.62;101369.03;4822353;29;20062;-70
2022/04/03 06:42:25;;;;;;;8.30;4.38;;;;;;;-0.70;76.72;101371.47;4811559;29;20039;-70
2022/04/03 06:44:52;;;;;;;7.95;4.63;;;;;;;-0.51;76.59;101374.53;4817616;29;20069;-70
2022/04/03 06:47:18;;;;;;;11.70;5.10;;;;;;;-0.35;78.78;101387.84;4810677;29;20042;-72
2022/04/03 06:49:43;;;;;;;10.55;5.22;;;;;;;-0.26;80.02;101372.97;4810380;29;20046;-72
2022/04/03 06:52:09;;;;;;;13.55;5.43;;;;;;;-0.14;78.88;101372.41;4810213;29;20039;-72
2022/04/03 06:54:35;;;;;;;11.20;5.53;;;;;;;-0.01;78.45;101369.75;4816348;29;20049;-72
2022/04/03 06:57:00;;;;;;;12.38;5.47;;;;;;;0.12;84.17;101372.56;4812765;29;20035;-72
2022/04/03 06:59:26;;;;;;;8.45;4.65;;;;;;;0.30;79.75;101377.44;4811366;29;20031;-72
2022/04/03 07:01:51;;;;;;;11.48;4.97;;;;;;;0.46;80.04;101372.66;4825076;29;20041;-72
2022/04/03 07:04:17;;;;;;;8.85;4.88;;;;;;;0.61;80.26;101376.03;4801087;29;20030;-72
2022/04/03 07:06:42;;;;;;;8.82;4.45;;;;;;;0.75;77.53;101379.66;4816933;29;20034;-71
2022/04/03 07:09:08;;;;;;;9.45;4.40;;;;;;;0.92;78.55;101380.97;4810111;29;20112;-71
2022/04/03 07:11:33;;;;;;;13.85;4.68;;;;;;;1.08;78.87;101379.69;4823450;29;20049;-71
2022/04/03 07:13:59;;;;;;;11.93;5.00;;;;;;;1.23;80.35;101384.97;4816506;29;20035;-72
2022/04/03 07:16:24;;;;;;;11.07;4.55;;;;;;;1.41;79.73;101389.78;4821366;29;20058;-71
2022/04/03 07:18:49;;;;;;;11.82;4.47;;;;;;;1.55;78.89;101380.50;4825816;29;20406;-73
2022/04/03 07:21:15;;;;;;;8.30;4.28;;;;;;;1.72;78.69;101386.34;4811321;29;20031;-72
2022/04/03 07:23:40;;;;;;;8.18;4.53;;;;;;;1.85;77.39;101391.81;4833265;29;20038;-72
2022/04/03 07:26:07;;;;;;;8.90;4.65;;;;;;;1.98;77.37;101389.03;4812038;29;20049;-72
2022/04/03 07:28:32;;;;;;;8.93;4.68;;;;;;;2.11;76.98;101393.59;4792991;29;20540;-72
2022/04/03 07:30:58;;;;;;;6.20;4.00;;;;;;;2.26;76.40;101389.75;4826585;29;20047;-72
2022/04/03 07:33:24;;;;;;;11.23;4.43;;;;;;;2.38;75.79;101393.50;4831174;29;20373;-72
2022/04/03 07:35:52;;;;;;;11.32;4.18;;;;;;;2.53;76.54;101398.69;4792817;29;20039;-72
2022/04/03 07:38:18;;;;;;;8.82;3.70;;;;;;;2.72;74.61;101397.75;4788641;29;20122;-72
2022/04/03 07:40:45;;;;;;;10.00;4.10;;;;;;;2.90;75.36;101397.03;4808224;29;20046;-72
2022/04/03 07:43:12;;;;;;;7.80;3.95;;;;;;;3.07;74.93;101405.56;4801000;29;20064;-73
2022/04/03 07:45:37;;;;;;;13.23;4.30;;;;;;;3.26;74.23;101401.81;4806908;29;20045;-72
2022/04/03 07:48:03;;;;;;;9.77;4.30;;;;;;;3.48;74.56;101399.50;4799246;29;20415;-72
2022/04/03 07:50:28;;;;;;;8.95;3.65;;;;;;;3.69;73.59;101400.97;4798872;29;20048;-72
2022/04/03 07:52:54;;;;;;;11.18;4.95;;;;;;;3.87;74.16;101402.91;4809918;29;20068;-72
2022/04/03 07:55:19;;;;;;;11.13;4.07;;;;;;;4.03;70.60;101399.56;4811205;29;20034;-72
2022/04/03 07:57:45;;;;;;;10.18;4.00;;;;;;;4.23;70.83;101407.59;4793050;29;20026;-72
2022/04/03 08:00:11;;;;;;;10.65;3.80;;;;;;;4.36;69.85;101390.06;4794727;29;20082;-72
2022/04/03 08:02:37;;;;;;;9.40;4.03;;;;;;;4.42;67.83;101396.56;4791385;29;20055;-72
2022/04/03 08:05:03;;;;;;;9.45;3.95;;;;;;;4.59;67.25;101405.84;4783866;29;20027;-72
2022/04/03 08:07:44;;;;;;;9.13;4.30;;;;;;;4.65;66.95;101407.69;4821489;29;20144;-72
2022/04/03 08:10:10;;;;;;;9.00;4.13;;;;;;;4.64;66.13;101405.97;4825214;29;20065;-72
2022/04/03 08:12:36;;;;;;;6.90;3.28;;;;;;;4.66;64.29;101403.84;4824543;29;20049;-72
2022/04/03 08:15:02;;;;;;;8.18;3.47;;;;;;;4.78;64.17;101408.56;4842681;29;20441;-73
2022/04/03 08:17:28;;;;;;;9.90;3.83;;;;;;;4.93;65.56;101411.69;4829641;29;20519;-73
2022/04/03 08:19:53;;;;;;;11.80;3.88;;;;;;;5.00;63.03;101415.22;4826339;29;20057;-72
2022/04/03 08:22:19;;;;;;;10.00;3.63;;;;;;;5.04;63.81;101410.94;4809920;29;20034;-72
2022/04/03 08:24:44;;;;;;;9.98;3.90;;;;;;;5.06;63.72;101418.94;4811562;29;20061;-72
2022/04/03 08:27:12;;;;;;;8.55;4.00;;;;;;;5.14;62.44;101419.44;4820460;29;20548;-72
2022/04/03 08:29:38;;;;;;;9.00;4.05;;;;;;;5.20;62.33;101419.56;4809983;29;20078;-72
2022/04/03 08:32:03;;;;;;;7.90;4.10;;;;;;;5.28;61.18;101422.81;4811835;29;20129;-72
2022/04/03 08:34:29;;;;;;;7.95;3.40;;;;;;;5.29;60.63;101420.91;4824646;29;20037;-72
2022/04/03 08:36:54;;;;;;;9.90;3.60;;;;;;;5.34;59.53;101419.09;4797494;29;20039;-72
2022/04/03 08:39:20;;;;;;;10.50;3.40;;;;;;;5.49;59.99;101418.66;4790340;29;20034;-72
2022/04/03 08:41:46;;;;;;;8.13;3.55;;;;;;;5.45;58.32;101422.13;4826743;29;20054;-72
2022/04/03 08:44:12;;;;;;;8.50;3.35;;;;;;;5.46;58.46;101419.16;4815200;29;20030;-72
2022/04/03 08:46:38;;;;;;;11.02;3.72;;;;;;;5.50;58.33;101425.00;4827412;29;20405;-72
2022/04/03 08:49:03;;;;;;;9.80;3.65;;;;;;;5.50;57.15;101428.59;4811236;29;20183;-72
2022/04/03 08:51:30;;;;;;;7.53;3.78;;;;;;;5.54;57.64;101427.06;4826253;29;20030;-72
2022/04/03 08:53:55;;;;;;;8.70;3.53;;;;;;;5.61;57.55;101435.19;4827978;29;20038;-72
2022/04/03 08:56:21;;;;;;;10.93;3.83;;;;;;;5.68;57.35;101435.06;4824172;29;20042;-72
2022/04/03 08:58:46;;;;;;;10.43;4.82;;;;;;;5.67;55.03;101425.97;4817510;29;20022;-73
2022/04/03 09:01:12;;;;;;;10.05;4.53;;;;;;;5.65;55.31;101433.63;4830020;29;20039;-72
2022/04/03 09:03:37;;;;;;;9.85;4.72;;;;;;;5.70;55.66;101427.41;4816698;29;20054;-72
2022/04/03 09:06:13;;;;;;;13.20;5.18;;;;;;;5.68;54.88;101427.63;4816121;29;20053;-72
2022/04/03 09:08:39;;;;;;;11.82;5.80;;;;;;;5.74;54.85;101428.59;4821330;29;20038;-72
2022/04/03 09:11:07;;;;;;;9.80;4.47;;;;;;;5.87;54.49;101430.28;4828939;29;20030;-72
2022/04/03 09:13:33;;;;;;;7.68;5.10;;;;;;;5.83;54.15;101425.25;4808068;29;20030;-72
2022/04/03 09:15:59;;;;;;;8.48;4.53;;;;;;;6.04;53.25;101421.09;4810831;29;20062;-72
2022/04/03 09:18:41;;;;;;;9.00;4.97;;;;;;;6.00;53.17;101433.66;4831309;29;20027;-72
2022/04/03 09:21:26;;;;;;;7.45;4.53;;;;;;;6.09;54.19;101433.31;4812119;29;20037;-72
2022/04/03 09:23:55;;;;;;;8.55;5.13;;;;;;;6.15;53.47;101435.09;4821351;29;20037;-72
2022/04/03 09:26:21;;;;;;;7.30;4.60;;;;;;;6.25;54.02;101438.91;4809095;29;20409;-72
2022/04/03 09:28:47;;;;;;;9.43;5.03;;;;;;;6.35;54.00;101432.78;4822608;29;20038;-72
2022/04/03 09:31:30;;;;;;;7.53;5.00;;;;;;;6.36;53.79;101434.47;4826707;29;20041;-72
2022/04/03 09:34:02;;;;;;;9.52;4.70;;;;;;;6.49;54.08;101433.31;4832682;29;20035;-72
2022/04/03 09:36:32;;;;;;;11.23;5.25;;;;;;;6.44;53.51;101434.09;4824733;29;20396;-72
2022/04/03 09:39:08;;;;;;;10.60;4.97;;;;;;;6.49;52.71;101434.19;4828089;29;20126;-72
2022/04/03 09:41:34;;;;;;;5.57;4.75;;;;;;;6.52;52.89;101441.16;4811868;29;20054;-72
2022/04/03 09:44:00;;;;;;;8.40;4.57;;;;;;;6.67;52.56;101429.56;4825002;29;20053;-73
2022/04/03 09:46:29;;;;;;;7.22;4.50;;;;;;;6.80;49.70;101426.53;4792233;29;20038;-72
2022/04/03 09:48:55;;;;;;;7.82;3.97;;;;;;;6.93;48.06;101436.41;4818023;29;20038;-72
2022/04/03 09:51:30;;;;;;;6.43;4.45;;;;;;;6.93;49.17;101434.47;4810216;29;20522;-78
2022/04/03 09:54:00;;;;;;;13.75;5.72;;;;;;;7.06;49.79;101430.59;4811128;29;20044;-80
2022/04/03 09:56:34;;;;;;;10.65;5.00;;;;;;;7.11;49.63;101427.94;4811163;29;20030;-80
2022/04/03 09:59:04;;;;;;;6.15;3.50;;;;;;;7.25;47.03;101427.63;4819338;29;20409;-77
2022/04/03 10:01:42;;;;;;;6.00;2.90;;;;;;;7.36;45.58;101424.78;4813367;29;20030;-75
2022/04/03 10:04:13;;;;;;;5.05;2.90;;;;;;;7.49;46.00;101431.88;4813481;29;20034;-74
2022/04/03 10:06:39;;;;;;;5.13;2.90;;;;;;;7.54;45.79;101434.72;4828815;29;20035;-74
2022/04/03 10:09:04;;;;;;;4.68;2.70;;;;;;;7.46;43.66;101431.56;4821871;29;20409;-74
2022/04/03 10:11:30;;;;;;;7.72;4.28;;;;;;;7.49;43.50;101440.16;4828485;29;20041;-74
2022/04/03 10:13:56;;;;;;;6.47;2.78;;;;;;;7.58;44.35;101435.91;4813872;29;20048;-73
2022/04/03 10:16:24;;;;;;;20.02;10.82;;;;;;;7.58;44.37;101435.91;4828877;29;20039;-76
2022/04/03 10:18:50;;;;;;;8.55;4.63;;;;;;;7.59;43.91;101434.00;4828982;29;20039;-77
2022/04/03 10:21:37;;;;;;;8.40;2.70;;;;;;;7.49;43.97;101442.09;4813858;29;20034;-75
2022/04/03 10:24:19;;;;;;;4.38;2.50;;;;;;;7.58;44.67;101438.69;4828865;29;20030;-74
2022/04/03 10:27:24;;;;;;;3.45;2.15;;;;;;;7.59;44.41;101432.06;4830633;29;20038;-75
2022/04/03 10:29:49;;;;;;;6.30;2.63;;;;;;;7.77;45.40;101425.44;4824234;29;20050;-74
2022/04/03 10:32:33;;;;;;;4.07;2.30;;;;;;;7.89;44.09;101436.41;4829881;29;20091;-74
2022/04/03 10:35:03;;;;;;;5.55;2.60;;;;;;;7.82;44.88;101438.50;4829843;29;20045;-75
2022/04/03 10:37:31;;;;;;;4.13;2.30;;;;;;;7.96;44.86;101425.16;4828372;29;20423;-75
2022/04/03 10:40:16;;;;;;;4.32;2.28;;;;;;;8.06;45.22;101428.91;4828219;29;20059;-74
2022/04/03 10:42:49;;;;;;;4.97;2.10;;;;;;;8.07;44.05;101429.72;4829764;29;20492;-74
2022/04/03 10:45:27;;;;;;;5.20;2.50;;;;;;;8.24;44.02;101429.69;4828758;29;20030;-77
2022/04/03 10:48:21;;;;;;;5.20;2.08;;;;;;;8.07;43.46;101432.50;4813479;29;20038;-77
2022/04/03 10:50:59;;;;;;;3.72;2.15;;;;;;;8.02;44.38;101429.66;4828968;29;20062;-74
2022/04/03 10:54:05;;;;;;;4.50;2.25;;;;;;;7.99;44.63;101419.09;4825797;29;20046;-75
2022/04/03 10:56:32;;;;;;;5.25;2.03;;;;;;;8.20;47.43;101414.69;4828517;29;20057;-76
2022/04/03 10:59:01;;;;;;;6.32;2.60;;;;;;;8.28;44.89;101417.84;4830051;29;20031;-76
2022/04/03 11:01:31;;;;;;;6.05;2.55;;;;;;;8.31;45.41;101405.44;4797516;29;20054;-75
2022/04/03 11:04:11;;;;;;;6.07;2.70;;;;;;;8.31;44.56;101415.69;4813220;29;20030;-76
2022/04/03 11:06:45;;;;;;;4.50;2.40;;;;;;;8.04;44.25;101405.34;4816698;29;20404;-74
2022/04/03 11:09:15;;;;;;;3.45;2.13;;;;;;;8.02;44.31;101405.63;4820762;29;20041;-75
2022/04/03 11:11:58;;;;;;;4.85;2.03;;;;;;;8.01;44.02;101403.91;4827496;29;20465;-75
2022/04/03 11:14:42;;;;;;;;;;;;;;;7.98;43.98;101396.13;4825389;29;20042;-74
2022/04/03 11:17:07;;;;;;;5.13;1.98;;;;;;;7.95;42.99;101390.28;4827196;29;19919;-75
2022/04/03 11:19:40;;;;;;;5.20;1.92;;;;;;;7.93;44.07;101392.47;4814989;29;20026;-76
2022/04/03 11:22:05;;;;;;;4.93;2.10;;;;;;;7.98;45.17;101389.78;4811597;29;20126;-72
2022/04/03 11:24:32;;;;;;;4.85;2.25;;;;;;;8.02;44.08;101385.38;4817321;29;20039;-72
2022/04/03 11:26:58;;;;;;;5.38;2.85;;;;;;;8.04;44.79;101383.22;4797622;29;20030;-72
2022/04/03 11:29:23;;;;;;;4.55;2.20;;;;;;;8.09;43.89;101382.47;4828859;29;20038;-72